sensor_id;sensor_type;location;lat;lon;timestamp;temperature;humidity
72380;SHT30;60354;47.798;12.472;2023-06-19T00:00:15;18.47;70.53
72380;SHT30;60354;47.798;12.472;2023-06-19T00:02:43;18.53;70.37
72380;SHT30;60354;47.798;12.472;2023-06-19T00:05:09;18.46;70.34
72380;SHT30;60354;47.798;12.472;2023-06-19T00:07:38;18.25;71.41
72380;SHT30;60354;47.798;12.472;2023-06-19T00:10:05;18.01;72.16
72380;SHT30;60354;47.798;12.472;2023-06-19T00:12:31;18.08;71.40
72380;SHT30;60354;47.798;12.472;2023-06-19T00:14:57;18.05;71.34
72380;SHT30;60354;47.798;12.472;2023-06-19T00:17:22;18.16;70.74
72380;SHT30;60354;47.798;12.472;2023-06-19T00:19:51;18.16;70.81
72380;SHT30;60354;47.798;12.472;2023-06-19T00:22:16;18.30;70.13
72380;SHT30;60354;47.798;12.472;2023-06-19T00:24:42;18.22;70.14
72380;SHT30;60354;47.798;12.472;2023-06-19T00:27:07;18.16;70.31
72380;SHT30;60354;47.798;12.472;2023-06-19T00:29:33;18.09;70.25
72380;SHT30;60354;47.798;12.472;2023-06-19T00:31:59;18.18;69.72
72380;SHT30;60354;47.798;12.472;2023-06-19T00:34:25;18.08;70.32
72380;SHT30;60354;47.798;12.472;2023-06-19T00:36:51;17.99;70.10
72380;SHT30;60354;47.798;12.472;2023-06-19T00:39:22;18.01;70.32
72380;SHT30;60354;47.798;12.472;2023-06-19T00:41:47;17.99;70.52
72380;SHT30;60354;47.798;12.472;2023-06-19T00:44:14;17.97;69.91
72380;SHT30;60354;47.798;12.472;2023-06-19T00:46:40;17.79;70.96
72380;SHT30;60354;47.798;12.472;2023-06-19T00:49:07;17.81;71.03
72380;SHT30;60354;47.798;12.472;2023-06-19T00:51:33;17.71;70.87
72380;SHT30;60354;47.798;12.472;2023-06-19T00:53:59;17.82;70.84
72380;SHT30;60354;47.798;12.472;2023-06-19T00:56:25;17.87;70.59
72380;SHT30;60354;47.798;12.472;2023-06-19T00:58:52;17.82;70.56
72380;SHT30;60354;47.798;12.472;2023-06-19T01:01:19;17.84;70.43
72380;SHT30;60354;47.798;12.472;2023-06-19T01:03:46;17.78;70.48
72380;SHT30;60354;47.798;12.472;2023-06-19T01:06:23;17.60;70.81
72380;SHT30;60354;47.798;12.472;2023-06-19T01:09:01;17.64;71.08
72380;SHT30;60354;47.798;12.472;2023-06-19T01:11:40;17.55;71.12
72380;SHT30;60354;47.798;12.472;2023-06-19T01:14:15;17.60;71.21
72380;SHT30;60354;47.798;12.472;2023-06-19T01:16:43;17.58;70.76
72380;SHT30;60354;47.798;12.472;2023-06-19T01:19:10;17.66;70.91
72380;SHT30;60354;47.798;12.472;2023-06-19T01:21:39;17.64;70.44
72380;SHT30;60354;47.798;12.472;2023-06-19T01:24:05;17.53;70.78
72380;SHT30;60354;47.798;12.472;2023-06-19T01:26:31;17.66;70.37
72380;SHT30;60354;47.798;12.472;2023-06-19T01:28:56;17.60;70.42
72380;SHT30;60354;47.798;12.472;2023-06-19T01:31:30;17.53;70.72
72380;SHT30;60354;47.798;12.472;2023-06-19T01:33:57;17.57;70.41
72380;SHT30;60354;47.798;12.472;2023-06-19T01:36:24;17.61;70.39
72380;SHT30;60354;47.798;12.472;2023-06-19T01:38:51;17.63;70.62
72380;SHT30;60354;47.798;12.472;2023-06-19T01:41:18;17.54;70.65
72380;SHT30;60354;47.798;12.472;2023-06-19T01:43:45;17.61;70.07
72380;SHT30;60354;47.798;12.472;2023-06-19T01:46:11;17.37;71.11
72380;SHT30;60354;47.798;12.472;2023-06-19T01:48:38;17.43;70.75
72380;SHT30;60354;47.798;12.472;2023-06-19T01:51:06;17.44;70.93
72380;SHT30;60354;47.798;12.472;2023-06-19T01:53:31;17.47;71.11
72380;SHT30;60354;47.798;12.472;2023-06-19T01:55:58;17.44;71.02
72380;SHT30;60354;47.798;12.472;2023-06-19T01:58:24;17.63;70.25
72380;SHT30;60354;47.798;12.472;2023-06-19T02:00:49;17.68;70.01
72380;SHT30;60354;47.798;12.472;2023-06-19T02:03:15;17.79;69.78
72380;SHT30;60354;47.798;12.472;2023-06-19T02:05:42;17.82;69.09
72380;SHT30;60354;47.798;12.472;2023-06-19T02:08:07;17.84;69.81
72380;SHT30;60354;47.798;12.472;2023-06-19T02:10:35;17.75;70.08
72380;SHT30;60354;47.798;12.472;2023-06-19T02:13:01;17.38;71.20
72380;SHT30;60354;47.798;12.472;2023-06-19T02:15:27;17.33;70.92
72380;SHT30;60354;47.798;12.472;2023-06-19T02:17:55;17.37;70.66
72380;SHT30;60354;47.798;12.472;2023-06-19T02:20:22;17.37;70.19
72380;SHT30;60354;47.798;12.472;2023-06-19T02:22:47;17.48;70.08
72380;SHT30;60354;47.798;12.472;2023-06-19T02:25:13;17.50;70.45
72380;SHT30;60354;47.798;12.472;2023-06-19T02:27:42;17.53;70.73
72380;SHT30;60354;47.798;12.472;2023-06-19T02:30:08;17.57;70.93
72380;SHT30;60354;47.798;12.472;2023-06-19T02:32:33;17.60;70.95
72380;SHT30;60354;47.798;12.472;2023-06-19T02:35:01;17.61;70.85
72380;SHT30;60354;47.798;12.472;2023-06-19T02:37:26;17.58;70.38
72380;SHT30;60354;47.798;12.472;2023-06-19T02:39:52;17.64;70.18
72380;SHT30;60354;47.798;12.472;2023-06-19T02:42:17;17.70;70.53
72380;SHT30;60354;47.798;12.472;2023-06-19T02:44:43;17.74;70.32
72380;SHT30;60354;47.798;12.472;2023-06-19T02:47:08;17.81;69.80
72380;SHT30;60354;47.798;12.472;2023-06-19T02:49:34;17.89;69.72
72380;SHT30;60354;47.798;12.472;2023-06-19T02:52:00;17.95;69.50
72380;SHT30;60354;47.798;12.472;2023-06-19T02:54:25;17.84;69.93
72380;SHT30;60354;47.798;12.472;2023-06-19T02:56:51;17.88;69.97
72380;SHT30;60354;47.798;12.472;2023-06-19T02:59:17;17.89;69.80
72380;SHT30;60354;47.798;12.472;2023-06-19T03:01:42;17.88;69.96
72380;SHT30;60354;47.798;12.472;2023-06-19T03:04:11;17.95;70.02
72380;SHT30;60354;47.798;12.472;2023-06-19T03:06:38;18.02;69.92
72380;SHT30;60354;47.798;12.472;2023-06-19T03:09:08;18.06;70.11
72380;SHT30;60354;47.798;12.472;2023-06-19T03:11:41;18.08;69.99
72380;SHT30;60354;47.798;12.472;2023-06-19T03:14:08;18.15;69.67
72380;SHT30;60354;47.798;12.472;2023-06-19T03:16:34;18.21;69.52
72380;SHT30;60354;47.798;12.472;2023-06-19T03:19:01;18.28;68.65
72380;SHT30;60354;47.798;12.472;2023-06-19T03:21:27;18.39;67.70
72380;SHT30;60354;47.798;12.472;2023-06-19T03:23:52;18.43;67.92
72380;SHT30;60354;47.798;12.472;2023-06-19T03:26:20;18.49;68.35
72380;SHT30;60354;47.798;12.472;2023-06-19T03:28:47;18.53;68.05
72380;SHT30;60354;47.798;12.472;2023-06-19T03:31:14;18.59;67.88
72380;SHT30;60354;47.798;12.472;2023-06-19T03:33:40;18.63;67.86
72380;SHT30;60354;47.798;12.472;2023-06-19T03:36:07;18.66;67.64
72380;SHT30;60354;47.798;12.472;2023-06-19T03:38:53;18.49;69.79
72380;SHT30;60354;47.798;12.472;2023-06-19T03:41:24;18.42;70.03
72380;SHT30;60354;47.798;12.472;2023-06-19T03:43:49;18.42;70.10
72380;SHT30;60354;47.798;12.472;2023-06-19T03:46:16;18.43;70.12
72380;SHT30;60354;47.798;12.472;2023-06-19T03:48:41;18.45;70.26
72380;SHT30;60354;47.798;12.472;2023-06-19T03:51:07;18.47;70.03
72380;SHT30;60354;47.798;12.472;2023-06-19T03:53:32;18.50;70.03
72380;SHT30;60354;47.798;12.472;2023-06-19T03:55:58;18.46;69.58
72380;SHT30;60354;47.798;12.472;2023-06-19T03:58:24;18.52;69.38
72380;SHT30;60354;47.798;12.472;2023-06-19T04:00:51;18.55;69.21
72380;SHT30;60354;47.798;12.472;2023-06-19T04:03:17;18.61;69.22
72380;SHT30;60354;47.798;12.472;2023-06-19T04:05:44;18.56;69.97
72380;SHT30;60354;47.798;12.472;2023-06-19T04:08:11;18.64;68.38
72380;SHT30;60354;47.798;12.472;2023-06-19T04:10:36;18.68;67.43
72380;SHT30;60354;47.798;12.472;2023-06-19T04:13:02;18.77;67.16
72380;SHT30;60354;47.798;12.472;2023-06-19T04:15:30;18.83;67.31
72380;SHT30;60354;47.798;12.472;2023-06-19T04:17:57;18.60;69.88
72380;SHT30;60354;47.798;12.472;2023-06-19T04:20:23;18.32;71.20
72380;SHT30;60354;47.798;12.472;2023-06-19T04:22:48;18.18;71.54
72380;SHT30;60354;47.798;12.472;2023-06-19T04:25:14;18.16;71.08
72380;SHT30;60354;47.798;12.472;2023-06-19T04:27:39;18.25;71.12
72380;SHT30;60354;47.798;12.472;2023-06-19T04:30:05;18.30;71.11
72380;SHT30;60354;47.798;12.472;2023-06-19T04:32:32;18.39;70.83
72380;SHT30;60354;47.798;12.472;2023-06-19T04:34:58;18.46;70.86
72380;SHT30;60354;47.798;12.472;2023-06-19T04:37:24;18.45;73.15
72380;SHT30;60354;47.798;12.472;2023-06-19T04:39:49;18.49;72.68
72380;SHT30;60354;47.798;12.472;2023-06-19T04:42:16;18.53;72.11
72380;SHT30;60354;47.798;12.472;2023-06-19T04:44:49;18.60;70.89
72380;SHT30;60354;47.798;12.472;2023-06-19T04:47:16;18.76;70.53
72380;SHT30;60354;47.798;12.472;2023-06-19T04:49:42;18.93;69.29
72380;SHT30;60354;47.798;12.472;2023-06-19T04:52:07;19.10;67.99
72380;SHT30;60354;47.798;12.472;2023-06-19T04:54:33;19.24;67.35
72380;SHT30;60354;47.798;12.472;2023-06-19T04:56:59;19.36;67.78
72380;SHT30;60354;47.798;12.472;2023-06-19T04:59:24;19.39;67.33
72380;SHT30;60354;47.798;12.472;2023-06-19T05:01:50;19.46;66.68
72380;SHT30;60354;47.798;12.472;2023-06-19T05:04:19;19.55;65.65
72380;SHT30;60354;47.798;12.472;2023-06-19T05:06:45;19.56;67.66
72380;SHT30;60354;47.798;12.472;2023-06-19T05:09:10;19.54;70.44
72380;SHT30;60354;47.798;12.472;2023-06-19T05:11:36;19.58;69.24
72380;SHT30;60354;47.798;12.472;2023-06-19T05:14:02;19.62;67.93
72380;SHT30;60354;47.798;12.472;2023-06-19T05:16:28;19.77;67.25
72380;SHT30;60354;47.798;12.472;2023-06-19T05:18:53;19.80;67.19
72380;SHT30;60354;47.798;12.472;2023-06-19T05:21:19;19.77;64.93
72380;SHT30;60354;47.798;12.472;2023-06-19T05:23:44;19.82;64.16
72380;SHT30;60354;47.798;12.472;2023-06-19T05:26:12;19.86;64.93
72380;SHT30;60354;47.798;12.472;2023-06-19T05:28:39;19.80;69.75
72380;SHT30;60354;47.798;12.472;2023-06-19T05:31:04;19.79;69.93
72380;SHT30;60354;47.798;12.472;2023-06-19T05:33:30;19.76;67.23
72380;SHT30;60354;47.798;12.472;2023-06-19T05:35:55;19.80;67.17
72380;SHT30;60354;47.798;12.472;2023-06-19T05:38:21;19.83;66.93
72380;SHT30;60354;47.798;12.472;2023-06-19T05:40:50;19.92;66.26
72380;SHT30;60354;47.798;12.472;2023-06-19T05:43:15;19.69;71.54
72380;SHT30;60354;47.798;12.472;2023-06-19T05:45:41;19.63;70.44
72380;SHT30;60354;47.798;12.472;2023-06-19T05:48:06;19.62;70.18
72380;SHT30;60354;47.798;12.472;2023-06-19T05:50:32;19.63;69.60
72380;SHT30;60354;47.798;12.472;2023-06-19T05:52:57;19.69;69.54
72380;SHT30;60354;47.798;12.472;2023-06-19T05:55:23;19.89;66.49
72380;SHT30;60354;47.798;12.472;2023-06-19T05:57:50;19.96;68.78
72380;SHT30;60354;47.798;12.472;2023-06-19T06:00:16;19.89;70.22
72380;SHT30;60354;47.798;12.472;2023-06-19T06:02:42;19.70;71.39
72380;SHT30;60354;47.798;12.472;2023-06-19T06:05:07;19.61;72.01
72380;SHT30;60354;47.798;12.472;2023-06-19T06:07:34;19.62;70.14
72380;SHT30;60354;47.798;12.472;2023-06-19T06:10:00;19.65;70.58
72380;SHT30;60354;47.798;12.472;2023-06-19T06:12:25;19.62;72.74
72380;SHT30;60354;47.798;12.472;2023-06-19T06:14:51;19.68;72.02
72380;SHT30;60354;47.798;12.472;2023-06-19T06:17:16;19.72;69.77
72380;SHT30;60354;47.798;12.472;2023-06-19T06:19:42;19.77;69.70
72380;SHT30;60354;47.798;12.472;2023-06-19T06:22:07;19.86;69.81
72380;SHT30;60354;47.798;12.472;2023-06-19T06:24:33;19.94;69.39
72380;SHT30;60354;47.798;12.472;2023-06-19T06:26:58;19.93;70.61
72380;SHT30;60354;47.798;12.472;2023-06-19T06:29:24;19.96;67.31
72380;SHT30;60354;47.798;12.472;2023-06-19T06:31:50;19.93;71.47
72380;SHT30;60354;47.798;12.472;2023-06-19T06:34:18;20.03;70.76
72380;SHT30;60354;47.798;12.472;2023-06-19T06:36:44;20.17;68.59
72380;SHT30;60354;47.798;12.472;2023-06-19T06:39:10;20.24;69.70
72380;SHT30;60354;47.798;12.472;2023-06-19T06:41:36;20.43;68.27
72380;SHT30;60354;47.798;12.472;2023-06-19T06:44:04;20.51;67.28
72380;SHT30;60354;47.798;12.472;2023-06-19T06:46:30;20.68;66.43
72380;SHT30;60354;47.798;12.472;2023-06-19T06:48:56;20.85;65.95
72380;SHT30;60354;47.798;12.472;2023-06-19T06:51:21;20.94;68.62
72380;SHT30;60354;47.798;12.472;2023-06-19T06:53:47;21.49;67.91
72380;SHT30;60354;47.798;12.472;2023-06-19T06:56:13;22.32;65.22
72380;SHT30;60354;47.798;12.472;2023-06-19T06:58:38;22.79;63.27
72380;SHT30;60354;47.798;12.472;2023-06-19T07:01:04;23.30;61.69
72380;SHT30;60354;47.798;12.472;2023-06-19T07:03:30;23.51;59.18
72380;SHT30;60354;47.798;12.472;2023-06-19T07:05:57;23.82;58.00
72380;SHT30;60354;47.798;12.472;2023-06-19T07:08:22;23.38;59.59
72380;SHT30;60354;47.798;12.472;2023-06-19T07:10:48;23.55;59.94
72380;SHT30;60354;47.798;12.472;2023-06-19T07:13:14;24.09;57.56
72380;SHT30;60354;47.798;12.472;2023-06-19T07:15:40;24.19;57.53
72380;SHT30;60354;47.798;12.472;2023-06-19T07:18:05;24.04;57.88
72380;SHT30;60354;47.798;12.472;2023-06-19T07:20:31;24.08;58.21
72380;SHT30;60354;47.798;12.472;2023-06-19T07:22:56;24.41;57.67
72380;SHT30;60354;47.798;12.472;2023-06-19T07:25:22;25.26;54.66
72380;SHT30;60354;47.798;12.472;2023-06-19T07:27:50;25.79;53.80
72380;SHT30;60354;47.798;12.472;2023-06-19T07:30:16;25.83;54.26
72380;SHT30;60354;47.798;12.472;2023-06-19T07:32:41;25.38;54.70
72380;SHT30;60354;47.798;12.472;2023-06-19T07:35:07;25.28;55.01
72380;SHT30;60354;47.798;12.472;2023-06-19T07:37:33;25.31;54.51
72380;SHT30;60354;47.798;12.472;2023-06-19T07:39:58;25.21;55.75
72380;SHT30;60354;47.798;12.472;2023-06-19T07:42:24;25.17;55.18
72380;SHT30;60354;47.798;12.472;2023-06-19T07:44:49;25.11;55.73
72380;SHT30;60354;47.798;12.472;2023-06-19T07:47:16;25.21;55.21
72380;SHT30;60354;47.798;12.472;2023-06-19T07:49:43;25.18;54.71
72380;SHT30;60354;47.798;12.472;2023-06-19T07:52:09;25.35;54.61
72380;SHT30;60354;47.798;12.472;2023-06-19T07:54:35;25.38;55.80
72380;SHT30;60354;47.798;12.472;2023-06-19T07:57:00;25.31;54.55
72380;SHT30;60354;47.798;12.472;2023-06-19T07:59:26;25.36;53.50
72380;SHT30;60354;47.798;12.472;2023-06-19T08:01:51;25.25;54.19
72380;SHT30;60354;47.798;12.472;2023-06-19T08:04:17;25.17;54.68
72380;SHT30;60354;47.798;12.472;2023-06-19T08:06:42;25.19;53.69
72380;SHT30;60354;47.798;12.472;2023-06-19T08:09:08;25.14;53.48
72380;SHT30;60354;47.798;12.472;2023-06-19T08:11:33;25.25;53.56
72380;SHT30;60354;47.798;12.472;2023-06-19T08:13:59;25.32;52.30
72380;SHT30;60354;47.798;12.472;2023-06-19T08:16:25;25.21;53.08
72380;SHT30;60354;47.798;12.472;2023-06-19T08:18:51;25.21;52.96
72380;SHT30;60354;47.798;12.472;2023-06-19T08:21:16;25.28;54.74
72380;SHT30;60354;47.798;12.472;2023-06-19T08:23:42;25.22;53.46
72380;SHT30;60354;47.798;12.472;2023-06-19T08:26:09;25.25;54.30
72380;SHT30;60354;47.798;12.472;2023-06-19T08:28:37;25.50;53.80
72380;SHT30;60354;47.798;12.472;2023-06-19T08:31:03;25.67;53.36
72380;SHT30;60354;47.798;12.472;2023-06-19T08:33:28;25.76;52.88
72380;SHT30;60354;47.798;12.472;2023-06-19T08:35:54;25.89;51.17
72380;SHT30;60354;47.798;12.472;2023-06-19T08:38:19;26.18;49.81
72380;SHT30;60354;47.798;12.472;2023-06-19T08:40:45;26.51;50.19
72380;SHT30;60354;47.798;12.472;2023-06-19T08:43:11;26.72;50.72
72380;SHT30;60354;47.798;12.472;2023-06-19T08:45:37;27.17;49.47
72380;SHT30;60354;47.798;12.472;2023-06-19T08:48:04;27.77;49.77
72380;SHT30;60354;47.798;12.472;2023-06-19T08:50:35;27.84;48.43
72380;SHT30;60354;47.798;12.472;2023-06-19T08:53:00;27.91;46.06
72380;SHT30;60354;47.798;12.472;2023-06-19T08:55:26;28.24;45.85
72380;SHT30;60354;47.798;12.472;2023-06-19T08:57:51;28.38;45.34
72380;SHT30;60354;47.798;12.472;2023-06-19T09:00:29;28.26;45.24
72380;SHT30;60354;47.798;12.472;2023-06-19T09:03:03;28.66;44.85
72380;SHT30;60354;47.798;12.472;2023-06-19T09:05:28;28.72;43.49
72380;SHT30;60354;47.798;12.472;2023-06-19T09:07:56;29.06;44.63
72380;SHT30;60354;47.798;12.472;2023-06-19T09:10:22;28.99;44.08
72380;SHT30;60354;47.798;12.472;2023-06-19T09:12:59;28.73;45.04
72380;SHT30;60354;47.798;12.472;2023-06-19T09:15:31;29.06;44.12
72380;SHT30;60354;47.798;12.472;2023-06-19T09:18:07;29.08;44.41
72380;SHT30;60354;47.798;12.472;2023-06-19T09:20:37;29.39;43.32
72380;SHT30;60354;47.798;12.472;2023-06-19T09:23:04;29.38;43.23
72380;SHT30;60354;47.798;12.472;2023-06-19T09:25:30;29.51;44.34
72380;SHT30;60354;47.798;12.472;2023-06-19T09:27:56;29.35;43.99
72380;SHT30;60354;47.798;12.472;2023-06-19T09:30:23;29.53;44.39
72380;SHT30;60354;47.798;12.472;2023-06-19T09:32:49;29.86;43.54
72380;SHT30;60354;47.798;12.472;2023-06-19T09:35:14;29.84;42.58
72380;SHT30;60354;47.798;12.472;2023-06-19T09:37:40;29.43;43.83
72380;SHT30;60354;47.798;12.472;2023-06-19T09:40:07;29.71;44.39
72380;SHT30;60354;47.798;12.472;2023-06-19T09:42:38;29.71;43.92
72380;SHT30;60354;47.798;12.472;2023-06-19T09:45:08;29.45;43.61
72380;SHT30;60354;47.798;12.472;2023-06-19T09:47:47;29.58;43.79
72380;SHT30;60354;47.798;12.472;2023-06-19T09:50:14;29.74;43.35
72380;SHT30;60354;47.798;12.472;2023-06-19T09:52:41;29.18;44.50
72380;SHT30;60354;47.798;12.472;2023-06-19T09:55:09;29.57;44.20
72380;SHT30;60354;47.798;12.472;2023-06-19T09:57:38;29.66;42.57
72380;SHT30;60354;47.798;12.472;2023-06-19T10:00:08;29.79;43.10
72380;SHT30;60354;47.798;12.472;2023-06-19T10:02:42;29.48;42.69
72380;SHT30;60354;47.798;12.472;2023-06-19T10:05:08;29.58;43.04
72380;SHT30;60354;47.798;12.472;2023-06-19T10:07:38;29.62;43.18
72380;SHT30;60354;47.798;12.472;2023-06-19T10:10:06;29.66;43.97
72380;SHT30;60354;47.798;12.472;2023-06-19T10:15:20;29.54;43.95
72380;SHT30;60354;47.798;12.472;2023-06-19T10:17:53;29.74;44.21
72380;SHT30;60354;47.798;12.472;2023-06-19T10:20:21;29.68;44.29
72380;SHT30;60354;47.798;12.472;2023-06-19T10:25:37;29.68;42.97
72380;SHT30;60354;47.798;12.472;2023-06-19T10:28:03;29.43;44.55
72380;SHT30;60354;47.798;12.472;2023-06-19T10:30:31;29.43;43.96
72380;SHT30;60354;47.798;12.472;2023-06-19T10:32:59;29.18;45.21
72380;SHT30;60354;47.798;12.472;2023-06-19T10:35:29;29.14;45.29
72380;SHT30;60354;47.798;12.472;2023-06-19T10:37:54;29.10;45.66
72380;SHT30;60354;47.798;12.472;2023-06-19T10:40:20;29.26;44.36
72380;SHT30;60354;47.798;12.472;2023-06-19T10:42:46;29.28;44.71
72380;SHT30;60354;47.798;12.472;2023-06-19T10:45:13;29.27;44.88
72380;SHT30;60354;47.798;12.472;2023-06-19T10:47:41;29.27;45.18
72380;SHT30;60354;47.798;12.472;2023-06-19T10:50:15;29.44;45.60
72380;SHT30;60354;47.798;12.472;2023-06-19T10:52:42;29.39;44.11
72380;SHT30;60354;47.798;12.472;2023-06-19T10:55:08;29.37;44.68
72380;SHT30;60354;47.798;12.472;2023-06-19T10:57:34;29.37;44.99
72380;SHT30;60354;47.798;12.472;2023-06-19T10:59:59;29.61;44.63
72380;SHT30;60354;47.798;12.472;2023-06-19T11:02:26;29.71;44.60
72380;SHT30;60354;47.798;12.472;2023-06-19T11:04:53;29.34;44.46
72380;SHT30;60354;47.798;12.472;2023-06-19T11:07:19;29.51;44.73
72380;SHT30;60354;47.798;12.472;2023-06-19T11:09:44;29.71;44.49
72380;SHT30;60354;47.798;12.472;2023-06-19T11:12:11;29.84;44.49
72380;SHT30;60354;47.798;12.472;2023-06-19T11:14:37;29.85;44.19
72380;SHT30;60354;47.798;12.472;2023-06-19T11:17:08;29.61;44.56
72380;SHT30;60354;47.798;12.472;2023-06-19T11:19:33;29.51;45.01
72380;SHT30;60354;47.798;12.472;2023-06-19T11:21:59;29.53;45.06
72380;SHT30;60354;47.798;12.472;2023-06-19T11:24:29;29.27;45.30
72380;SHT30;60354;47.798;12.472;2023-06-19T11:26:56;29.41;45.14
72380;SHT30;60354;47.798;12.472;2023-06-19T11:29:25;29.69;44.47
72380;SHT30;60354;47.798;12.472;2023-06-19T11:31:53;29.65;44.21
72380;SHT30;60354;47.798;12.472;2023-06-19T11:34:19;29.13;45.32
72380;SHT30;60354;47.798;12.472;2023-06-19T11:36:45;29.23;46.13
72380;SHT30;60354;47.798;12.472;2023-06-19T11:39:13;29.08;45.24
72380;SHT30;60354;47.798;12.472;2023-06-19T11:41:39;29.20;46.07
72380;SHT30;60354;47.798;12.472;2023-06-19T11:44:07;29.23;45.96
72380;SHT30;60354;47.798;12.472;2023-06-19T11:46:36;29.41;45.95
72380;SHT30;60354;47.798;12.472;2023-06-19T11:49:13;29.68;43.92
72380;SHT30;60354;47.798;12.472;2023-06-19T11:51:39;29.54;44.90
72380;SHT30;60354;47.798;12.472;2023-06-19T11:54:07;29.71;44.77
72380;SHT30;60354;47.798;12.472;2023-06-19T11:56:34;29.28;44.40
72380;SHT30;60354;47.798;12.472;2023-06-19T11:59:01;29.41;45.68
72380;SHT30;60354;47.798;12.472;2023-06-19T12:01:26;29.47;44.30
72380;SHT30;60354;47.798;12.472;2023-06-19T12:03:52;29.57;45.34
72380;SHT30;60354;47.798;12.472;2023-06-19T12:06:18;29.66;45.61
72380;SHT30;60354;47.798;12.472;2023-06-19T12:08:44;29.64;44.55
72380;SHT30;60354;47.798;12.472;2023-06-19T12:11:09;29.71;44.90
72380;SHT30;60354;47.798;12.472;2023-06-19T12:13:35;29.26;46.05
72380;SHT30;60354;47.798;12.472;2023-06-19T12:16:01;29.64;45.82
72380;SHT30;60354;47.798;12.472;2023-06-19T12:18:27;29.61;45.05
72380;SHT30;60354;47.798;12.472;2023-06-19T12:20:52;29.69;44.18
72380;SHT30;60354;47.798;12.472;2023-06-19T12:23:21;29.76;45.01
72380;SHT30;60354;47.798;12.472;2023-06-19T12:25:46;29.79;45.21
72380;SHT30;60354;47.798;12.472;2023-06-19T12:28:12;29.62;44.80
72380;SHT30;60354;47.798;12.472;2023-06-19T12:30:42;29.75;44.26
72380;SHT30;60354;47.798;12.472;2023-06-19T12:33:07;29.79;44.76
72380;SHT30;60354;47.798;12.472;2023-06-19T12:35:33;29.98;44.25
72380;SHT30;60354;47.798;12.472;2023-06-19T12:37:58;30.09;44.21
72380;SHT30;60354;47.798;12.472;2023-06-19T12:40:24;30.01;43.60
72380;SHT30;60354;47.798;12.472;2023-06-19T12:42:50;30.02;44.16
72380;SHT30;60354;47.798;12.472;2023-06-19T12:45:16;29.53;45.03
72380;SHT30;60354;47.798;12.472;2023-06-19T12:47:41;29.84;45.05
72380;SHT30;60354;47.798;12.472;2023-06-19T12:50:07;30.16;44.67
72380;SHT30;60354;47.798;12.472;2023-06-19T12:52:33;29.99;43.29
72380;SHT30;60354;47.798;12.472;2023-06-19T12:54:58;29.95;43.84
72380;SHT30;60354;47.798;12.472;2023-06-19T12:57:26;29.93;43.66
72380;SHT30;60354;47.798;12.472;2023-06-19T12:59:52;29.55;43.89
72380;SHT30;60354;47.798;12.472;2023-06-19T13:02:17;29.72;43.85
72380;SHT30;60354;47.798;12.472;2023-06-19T13:04:43;30.01;44.93
72380;SHT30;60354;47.798;12.472;2023-06-19T13:07:08;30.02;44.54
72380;SHT30;60354;47.798;12.472;2023-06-19T13:09:34;30.05;44.25
72380;SHT30;60354;47.798;12.472;2023-06-19T13:12:01;29.98;43.90
72380;SHT30;60354;47.798;12.472;2023-06-19T13:14:27;30.06;44.34
72380;SHT30;60354;47.798;12.472;2023-06-19T13:16:53;29.62;43.90
72380;SHT30;60354;47.798;12.472;2023-06-19T13:19:18;29.69;44.32
72380;SHT30;60354;47.798;12.472;2023-06-19T13:21:44;29.74;44.78
72380;SHT30;60354;47.798;12.472;2023-06-19T13:24:10;29.82;44.26
72380;SHT30;60354;47.798;12.472;2023-06-19T13:26:36;29.75;43.90
72380;SHT30;60354;47.798;12.472;2023-06-19T13:29:02;30.09;44.21
72380;SHT30;60354;47.798;12.472;2023-06-19T13:31:27;30.13;44.63
72380;SHT30;60354;47.798;12.472;2023-06-19T13:33:53;30.13;45.04
72380;SHT30;60354;47.798;12.472;2023-06-19T13:36:18;30.15;44.22
72380;SHT30;60354;47.798;12.472;2023-06-19T13:38:45;30.16;44.09
72380;SHT30;60354;47.798;12.472;2023-06-19T13:41:12;30.33;44.13
72380;SHT30;60354;47.798;12.472;2023-06-19T13:43:37;30.08;43.43
72380;SHT30;60354;47.798;12.472;2023-06-19T13:46:06;30.19;43.20
72380;SHT30;60354;47.798;12.472;2023-06-19T13:48:31;30.17;42.72
72380;SHT30;60354;47.798;12.472;2023-06-19T13:50:57;29.96;43.19
72380;SHT30;60354;47.798;12.472;2023-06-19T13:53:25;29.95;43.64
72380;SHT30;60354;47.798;12.472;2023-06-19T13:55:50;29.69;43.37
72380;SHT30;60354;47.798;12.472;2023-06-19T13:58:16;29.96;43.67
72380;SHT30;60354;47.798;12.472;2023-06-19T14:00:41;29.95;44.27
72380;SHT30;60354;47.798;12.472;2023-06-19T14:03:07;29.88;42.84
72380;SHT30;60354;47.798;12.472;2023-06-19T14:05:32;29.79;43.70
72380;SHT30;60354;47.798;12.472;2023-06-19T14:07:59;29.90;44.23
72380;SHT30;60354;47.798;12.472;2023-06-19T14:10:24;29.69;43.76
72380;SHT30;60354;47.798;12.472;2023-06-19T14:12:50;29.84;43.72
72380;SHT30;60354;47.798;12.472;2023-06-19T14:15:15;29.81;44.71
72380;SHT30;60354;47.798;12.472;2023-06-19T14:17:41;29.81;43.87
72380;SHT30;60354;47.798;12.472;2023-06-19T14:20:10;29.65;43.71
72380;SHT30;60354;47.798;12.472;2023-06-19T14:22:38;29.79;42.82
72380;SHT30;60354;47.798;12.472;2023-06-19T14:25:07;29.64;43.90
72380;SHT30;60354;47.798;12.472;2023-06-19T14:27:37;29.75;44.52
72380;SHT30;60354;47.798;12.472;2023-06-19T14:30:03;29.88;44.42
72380;SHT30;60354;47.798;12.472;2023-06-19T14:32:29;30.02;43.97
72380;SHT30;60354;47.798;12.472;2023-06-19T14:34:55;29.75;43.70
72380;SHT30;60354;47.798;12.472;2023-06-19T14:37:20;29.75;43.83
72380;SHT30;60354;47.798;12.472;2023-06-19T14:39:46;29.76;43.86
72380;SHT30;60354;47.798;12.472;2023-06-19T14:42:11;29.82;44.23
72380;SHT30;60354;47.798;12.472;2023-06-19T14:44:37;29.81;44.80
72380;SHT30;60354;47.798;12.472;2023-06-19T14:47:03;29.99;44.46
72380;SHT30;60354;47.798;12.472;2023-06-19T14:49:29;29.96;44.66
72380;SHT30;60354;47.798;12.472;2023-06-19T14:51:54;29.84;44.70
72380;SHT30;60354;47.798;12.472;2023-06-19T14:54:22;29.95;45.17
72380;SHT30;60354;47.798;12.472;2023-06-19T14:56:48;29.99;45.88
72380;SHT30;60354;47.798;12.472;2023-06-19T14:59:15;30.05;44.57
72380;SHT30;60354;47.798;12.472;2023-06-19T15:01:40;30.23;45.20
72380;SHT30;60354;47.798;12.472;2023-06-19T15:04:06;29.84;45.71
72380;SHT30;60354;47.798;12.472;2023-06-19T15:06:32;29.76;46.19
72380;SHT30;60354;47.798;12.472;2023-06-19T15:08:58;29.62;45.50
72380;SHT30;60354;47.798;12.472;2023-06-19T15:11:23;29.71;45.58
72380;SHT30;60354;47.798;12.472;2023-06-19T15:13:49;29.48;45.98
72380;SHT30;60354;47.798;12.472;2023-06-19T15:16:14;29.64;46.08